Terminal Aerodrome Forecast
Issued by NWS

Home | Current Version | Previous Version | Text Only | Print | Product List | Glossary On
Versions: 1 2 3 4 5 6 7 8 9 10 11 12
255
FTUS43 KPAH 021720
TAFCGI
TAF
KCGI 021720Z 0218/0318 34006KT P6SM SCT030 BKN200
     FM022000 35006KT P6SM OVC045
     FM030000 36004KT P6SM OVC050
     FM030700 35003KT P6SM FEW020
     FM031400 35006KT P6SM FEW045=

USA.gov is the U.S. government's official web portal to all federal, state and local government web resources and services.